createdAt,value
2018-09-29T00:00:10.584Z,56.10
2018-09-29T00:02:44.062Z,56.50
2018-09-29T00:05:17.487Z,56.20
2018-09-29T00:07:51.148Z,56.10
2018-09-29T00:10:24.751Z,56.60
2018-09-29T00:12:59.402Z,56.50
2018-09-29T00:15:33.864Z,56.40
2018-09-29T00:18:07.162Z,56.20
2018-09-29T00:20:40.915Z,56.60
2018-09-29T00:23:15.225Z,56.50
2018-09-29T00:25:48.788Z,57.20
2018-09-29T00:28:28.981Z,56.70
2018-09-29T00:31:02.394Z,57.20
2018-09-29T00:33:42.272Z,56.40
2018-09-29T00:36:15.899Z,56.60
2018-09-29T00:38:49.702Z,56.60
2018-09-29T00:41:23.190Z,56.70
2018-09-29T00:43:56.580Z,56.90
2018-09-29T00:46:36.505Z,57.10
2018-09-29T00:49:10.044Z,57.60
2018-09-29T00:51:43.671Z,57.60
2018-09-29T00:54:17.321Z,57.60
2018-09-29T00:56:50.726Z,57.70
2018-09-29T00:59:24.110Z,57.30
2018-09-29T01:02:04.079Z,57.40
2018-09-29T01:04:37.454Z,58.00
2018-09-29T01:07:11.002Z,57.80
2018-09-29T01:09:46.577Z,57.50
2018-09-29T01:12:20.160Z,57.70
2018-09-29T01:14:53.732Z,58.70
2018-09-29T01:17:27.354Z,58.10
2018-09-29T01:20:00.881Z,57.90
2018-09-29T01:22:34.395Z,57.90
2018-09-29T01:25:07.944Z,58.00
2018-09-29T01:27:42.344Z,57.80
2018-09-29T01:30:15.946Z,58.10
2018-09-29T01:32:49.424Z,57.90
2018-09-29T01:35:24.006Z,57.90
2018-09-29T01:37:57.516Z,58.00
2018-09-29T01:40:31.115Z,58.10
2018-09-29T01:43:04.742Z,57.90
2018-09-29T01:45:38.314Z,57.80
2018-09-29T01:48:11.856Z,57.90
2018-09-29T01:50:46.341Z,58.10
2018-09-29T01:53:19.811Z,58.20
2018-09-29T01:55:53.426Z,58.70
2018-09-29T01:58:26.777Z,58.50
2018-09-29T02:01:01.294Z,58.70
2018-09-29T02:03:34.725Z,58.70
2018-09-29T02:06:08.270Z,58.30
2018-09-29T02:08:41.667Z,58.30
2018-09-29T02:11:15.204Z,58.20
2018-09-29T02:13:48.841Z,58.40
2018-09-29T02:16:22.408Z,59.30
2018-09-29T02:18:55.979Z,58.60
2018-09-29T02:21:35.939Z,58.80
2018-09-29T02:24:09.350Z,59.00
2018-09-29T02:26:42.969Z,59.00
2018-09-29T02:29:22.997Z,58.70
2018-09-29T02:31:56.441Z,58.80
2018-09-29T02:34:30.003Z,58.80
2018-09-29T02:37:03.576Z,58.90
2018-09-29T02:39:43.524Z,59.20
2018-09-29T02:42:23.359Z,59.30
2018-09-29T02:44:56.932Z,59.60
2018-09-29T02:47:30.516Z,59.50
2018-09-29T02:50:04.648Z,59.30
2018-09-29T02:52:38.034Z,59.40
2018-09-29T02:55:11.743Z,59.60
2018-09-29T02:57:45.368Z,59.80
2018-09-29T03:00:19.051Z,59.60
2018-09-29T03:02:52.677Z,59.40
2018-09-29T03:05:26.234Z,59.40
2018-09-29T03:07:59.812Z,59.50
2018-09-29T03:10:33.569Z,59.50
2018-09-29T03:13:08.120Z,59.40
2018-09-29T03:15:43.972Z,59.60
2018-09-29T03:18:20.762Z,59.80
2018-09-29T03:20:54.390Z,59.70
2018-09-29T03:23:28.170Z,59.50
2018-09-29T03:26:01.594Z,59.70
2018-09-29T03:28:34.952Z,59.70
2018-09-29T03:31:08.536Z,59.80
2018-09-29T03:33:43.138Z,59.80
2018-09-29T03:36:16.770Z,59.60
2018-09-29T03:38:50.347Z,59.40
2018-09-29T03:41:24.072Z,59.50
2018-09-29T03:43:57.886Z,59.80
2018-09-29T03:46:31.419Z,59.70
2018-09-29T03:49:04.948Z,59.60
2018-09-29T03:51:38.688Z,59.80
2018-09-29T03:54:12.304Z,60.10
2018-09-29T03:56:45.920Z,60.20
2018-09-29T03:59:19.465Z,60.40
2018-09-29T04:01:53.905Z,60.60
2018-09-29T04:04:27.316Z,60.60
2018-09-29T04:07:02.020Z,60.50
2018-09-29T04:09:35.305Z,60.10
2018-09-29T04:12:09.748Z,60.10
2018-09-29T04:14:43.392Z,60.30
2018-09-29T04:17:16.978Z,60.40
2018-09-29T04:19:50.617Z,60.20
2018-09-29T04:22:24.110Z,60.70
2018-09-29T04:25:01.819Z,60.80
2018-09-29T04:27:35.358Z,60.70
2018-09-29T04:30:09.701Z,60.70
2018-09-29T04:32:43.116Z,60.80
2018-09-29T04:35:16.673Z,60.70
2018-09-29T04:37:51.139Z,60.90
2018-09-29T04:40:31.003Z,61.40
2018-09-29T04:43:05.855Z,60.90
2018-09-29T04:45:40.441Z,60.90
2018-09-29T04:48:14.080Z,60.90
2018-09-29T04:50:47.452Z,60.70
2018-09-29T04:53:22.023Z,60.80
2018-09-29T04:55:59.672Z,60.30
2018-09-29T04:58:33.457Z,61.10
2018-09-29T05:01:07.075Z,61.20
2018-09-29T05:03:40.519Z,61.40
2018-09-29T05:06:14.134Z,61.50
2018-09-29T05:08:48.709Z,61.70
2018-09-29T05:11:22.274Z,61.80
2018-09-29T05:13:55.842Z,61.80
2018-09-29T05:16:29.347Z,61.90
2018-09-29T05:19:02.985Z,62.70
2018-09-29T05:21:36.732Z,62.20
2018-09-29T05:24:10.282Z,62.20
2018-09-29T05:26:44.987Z,62.20
2018-09-29T05:29:18.385Z,62.10
2018-09-29T05:31:52.116Z,62.30
2018-09-29T05:34:25.747Z,62.10
2018-09-29T05:36:59.344Z,62.20
2018-09-29T05:39:33.755Z,62.40
2018-09-29T05:42:07.494Z,62.20
2018-09-29T05:44:42.024Z,62.40
2018-09-29T05:47:15.624Z,62.80
2018-09-29T05:49:49.170Z,63.00
2018-09-29T05:52:22.722Z,63.50
2018-09-29T05:54:56.188Z,63.00
2018-09-29T05:57:30.035Z,64.00
2018-09-29T06:00:03.730Z,64.30
2018-09-29T06:02:37.480Z,64.20
2018-09-29T06:05:12.025Z,64.20
2018-09-29T06:07:45.575Z,65.00
2018-09-29T06:10:19.172Z,64.10
2018-09-29T06:12:52.549Z,64.00
2018-09-29T06:15:32.582Z,64.20
2018-09-29T06:18:06.104Z,64.60
2018-09-29T06:20:41.010Z,64.80
2018-09-29T06:23:14.784Z,65.10
2018-09-29T06:25:55.574Z,65.00
2018-09-29T06:28:29.437Z,65.10
2018-09-29T06:31:03.028Z,65.10
2018-09-29T06:33:36.762Z,65.10
2018-09-29T06:36:10.544Z,65.50
2018-09-29T06:38:50.481Z,66.90
2018-09-29T06:41:27.858Z,66.70
2018-09-29T06:44:02.341Z,66.70
2018-09-29T06:46:35.912Z,67.90
2018-09-29T06:49:09.352Z,69.30
2018-09-29T06:51:43.008Z,69.30
2018-09-29T06:54:22.928Z,69.20
2018-09-29T06:56:56.302Z,69.40
2018-09-29T06:59:29.802Z,70.70
2018-09-29T07:02:03.366Z,71.00
2018-09-29T07:04:36.836Z,70.70
2018-09-29T07:07:10.559Z,70.70
2018-09-29T07:09:44.063Z,72.30
2018-09-29T07:12:17.672Z,72.20
2018-09-29T07:14:57.529Z,72.30
2018-09-29T07:17:31.188Z,72.10
2018-09-29T07:20:06.824Z,72.90
2018-09-29T07:22:40.405Z,73.50
2018-09-29T07:25:14.038Z,73.20
2018-09-29T07:27:47.508Z,73.00
2018-09-29T07:30:27.594Z,74.10
2018-09-29T07:33:01.106Z,74.80
2018-09-29T07:35:37.754Z,74.10
2018-09-29T07:38:17.634Z,74.90
2018-09-29T07:40:57.632Z,74.60
2018-09-29T07:43:31.265Z,75.10
2018-09-29T07:46:05.229Z,75.70
2018-09-29T07:48:39.689Z,76.20
2018-09-29T07:51:13.169Z,76.60
2018-09-29T07:53:46.675Z,76.30
2018-09-29T07:56:20.188Z,76.60
2018-09-29T07:59:00.016Z,76.40
2018-09-29T08:01:33.517Z,76.80
2018-09-29T08:04:13.625Z,76.50
2018-09-29T08:06:53.567Z,76.50
2018-09-29T08:09:27.293Z,76.80
2018-09-29T08:12:07.381Z,76.90
2018-09-29T08:14:41.941Z,76.20
2018-09-29T08:17:15.528Z,76.90
2018-09-29T08:19:50.017Z,76.50
2018-09-29T08:22:30.058Z,76.40
2018-09-29T08:25:10.112Z,75.70
2018-09-29T08:27:44.892Z,75.80
2018-09-29T08:30:18.396Z,75.20
2018-09-29T08:32:58.584Z,75.10
2018-09-29T08:35:38.822Z,74.80
2018-09-29T08:38:18.852Z,74.70
2018-09-29T08:40:59.356Z,73.20
2018-09-29T08:43:39.412Z,72.60
2018-09-29T08:46:13.081Z,72.20
2018-09-29T08:48:53.846Z,71.70
2018-09-29T08:51:33.988Z,70.50
2018-09-29T08:54:07.383Z,70.50
2018-09-29T08:56:47.393Z,69.80
2018-09-29T08:59:27.429Z,70.00
2018-09-29T09:02:01.087Z,69.70
2018-09-29T09:04:38.820Z,68.60
2018-09-29T09:07:12.459Z,68.00
2018-09-29T09:09:47.015Z,67.30
2018-09-29T09:12:20.777Z,66.60
2018-09-29T09:15:01.201Z,67.00
2018-09-29T09:17:35.729Z,66.00
2018-09-29T09:20:15.793Z,68.40
2018-09-29T09:22:55.771Z,68.70
2018-09-29T09:25:29.603Z,56.60
2018-09-29T09:28:04.105Z,50.70
2018-09-29T09:30:37.908Z,46.20
2018-09-29T09:33:11.291Z,42.00
2018-09-29T09:35:44.892Z,40.10
2018-09-29T09:38:25.141Z,38.20
2018-09-29T09:40:58.659Z,37.60
2018-09-29T09:43:38.828Z,35.00
2018-09-29T09:46:18.660Z,36.50
2018-09-29T09:48:58.516Z,36.40
2018-09-29T09:51:32.246Z,35.80
2018-09-29T09:54:06.648Z,36.40
2018-09-29T09:56:40.153Z,37.50
2018-09-29T09:59:13.603Z,36.30
2018-09-29T10:01:53.010Z,37.10
2018-09-29T10:04:32.943Z,36.80
2018-09-29T10:07:07.303Z,38.90
2018-09-29T10:09:41.767Z,40.90
2018-09-29T10:12:20.513Z,42.30
2018-09-29T10:15:00.550Z,44.10
2018-09-29T10:17:40.536Z,44.80
2018-09-29T10:20:14.451Z,45.90
2018-09-29T10:22:48.396Z,46.50
2018-09-29T10:25:22.333Z,46.50
2018-09-29T10:27:56.037Z,47.10
2018-09-29T10:30:29.597Z,47.50
2018-09-29T10:33:05.315Z,47.60
2018-09-29T10:35:45.147Z,47.90
2018-09-29T10:38:19.591Z,47.20
2018-09-29T10:40:54.051Z,47.60
2018-09-29T10:43:27.552Z,48.20
2018-09-29T10:46:01.379Z,48.10
2018-09-29T10:48:35.033Z,47.20
2018-09-29T10:51:08.743Z,47.30
2018-09-29T10:53:48.802Z,47.90
2018-09-29T10:56:23.341Z,46.60
2018-09-29T10:59:03.823Z,46.20
2018-09-29T11:01:37.572Z,45.80
2018-09-29T11:04:12.021Z,46.00
2018-09-29T11:06:45.602Z,46.10
2018-09-29T11:09:20.256Z,45.10
2018-09-29T11:11:53.736Z,45.70
2018-09-29T11:14:27.352Z,44.30
2018-09-29T11:17:00.973Z,43.90
2018-09-29T11:19:40.912Z,44.40
2018-09-29T11:22:14.333Z,44.80
2018-09-29T11:24:48.072Z,44.40
2018-09-29T11:27:21.807Z,43.00
2018-09-29T11:29:55.381Z,42.40
2018-09-29T11:32:35.118Z,43.30
2018-09-29T11:35:15.178Z,43.50
2018-09-29T11:37:48.851Z,43.50
2018-09-29T11:40:28.997Z,43.90
2018-09-29T11:43:02.653Z,44.70
2018-09-29T11:45:36.896Z,44.10
2018-09-29T11:48:10.508Z,45.00
2018-09-29T11:50:45.197Z,44.10
2018-09-29T11:53:18.760Z,44.00
2018-09-29T11:55:52.378Z,44.00
2018-09-29T11:58:32.299Z,43.50
2018-09-29T12:01:12.187Z,43.30
2018-09-29T12:03:45.741Z,43.40
2018-09-29T12:06:25.817Z,43.00
2018-09-29T12:09:00.302Z,42.60
2018-09-29T12:11:35.424Z,43.20
2018-09-29T12:14:10.088Z,43.40
2018-09-29T12:16:43.657Z,43.30
2018-09-29T12:19:18.129Z,43.60
2018-09-29T12:21:58.139Z,43.70
2018-09-29T12:24:31.850Z,44.00
2018-09-29T12:27:05.673Z,43.30
2018-09-29T12:29:45.682Z,42.30
2018-09-29T12:32:19.379Z,42.70
2018-09-29T12:34:59.204Z,42.60
2018-09-29T12:37:39.078Z,43.00
2018-09-29T12:40:19.971Z,43.60
2018-09-29T12:42:59.831Z,43.70
2018-09-29T12:45:33.610Z,42.90
2018-09-29T12:48:07.082Z,43.20
2018-09-29T12:50:40.764Z,43.50
2018-09-29T12:53:20.547Z,43.00
2018-09-29T12:55:54.267Z,42.50
2018-09-29T12:58:34.225Z,41.50
2018-09-29T13:01:08.039Z,41.50
2018-09-29T13:03:41.639Z,42.00
2018-09-29T13:06:15.420Z,41.80
2018-09-29T13:08:49.054Z,42.70
2018-09-29T13:11:22.742Z,42.50
2018-09-29T13:14:03.507Z,42.10
2018-09-29T13:16:37.531Z,44.30
2018-09-29T13:19:11.261Z,43.80
2018-09-29T13:21:51.294Z,47.20
2018-09-29T13:24:31.473Z,43.90
2018-09-29T13:27:11.266Z,38.90
2018-09-29T13:29:44.851Z,35.40
2018-09-29T13:32:18.348Z,35.30
2018-09-29T13:34:52.052Z,32.20
2018-09-29T13:37:25.685Z,35.60
2018-09-29T13:39:59.404Z,33.80
2018-09-29T13:42:33.045Z,31.40
2018-09-29T13:45:06.426Z,31.40
2018-09-29T13:47:39.858Z,31.00
2018-09-29T13:50:13.410Z,31.10
2018-09-29T13:52:47.034Z,30.10
2018-09-29T13:55:20.509Z,29.10
2018-09-29T13:57:53.921Z,30.20
2018-09-29T14:00:33.876Z,31.20
2018-09-29T14:03:10.539Z,32.70
2018-09-29T14:05:50.544Z,30.80
2018-09-29T14:08:30.428Z,30.90
2018-09-29T14:11:04.125Z,31.30
2018-09-29T14:13:44.146Z,30.70
2018-09-29T14:16:18.010Z,31.40
2018-09-29T14:18:51.745Z,31.40
2018-09-29T14:21:25.347Z,32.40
2018-09-29T14:23:59.832Z,30.60
2018-09-29T14:26:33.681Z,30.30
2018-09-29T14:29:08.115Z,29.60
2018-09-29T14:31:48.068Z,29.70
2018-09-29T14:34:27.985Z,28.70
2018-09-29T14:37:01.792Z,28.20
2018-09-29T14:39:41.529Z,28.30
2018-09-29T14:42:21.631Z,27.80
2018-09-29T14:44:55.426Z,27.50
2018-09-29T14:47:29.014Z,27.20
2018-09-29T14:50:02.675Z,27.60
2018-09-29T14:52:36.253Z,26.20
2018-09-29T14:55:09.953Z,26.90
2018-09-29T14:57:44.446Z,28.20
2018-09-29T15:00:24.478Z,29.20
2018-09-29T15:02:58.958Z,29.40
2018-09-29T15:05:39.035Z,30.20
2018-09-29T15:08:12.728Z,31.00
2018-09-29T15:10:46.651Z,33.20
2018-09-29T15:13:26.602Z,32.70
2018-09-29T15:16:00.372Z,32.90
2018-09-29T15:18:34.025Z,33.10
2018-09-29T15:21:08.821Z,33.50
2018-09-29T15:23:42.615Z,33.60
2018-09-29T15:26:17.314Z,33.90
2018-09-29T15:28:51.034Z,34.00
2018-09-29T15:31:24.592Z,34.20
2018-09-29T15:33:58.192Z,34.40
2018-09-29T15:36:38.413Z,34.50
2018-09-29T15:39:18.400Z,35.00
2018-09-29T15:41:51.946Z,35.20
2018-09-29T15:44:25.590Z,35.50
2018-09-29T15:46:59.112Z,35.80
2018-09-29T15:49:39.113Z,36.20
2018-09-29T15:52:12.711Z,36.40
2018-09-29T15:54:46.478Z,36.00
2018-09-29T15:57:20.026Z,36.70
2018-09-29T15:59:53.827Z,36.70
2018-09-29T16:02:27.934Z,36.70
2018-09-29T16:05:07.715Z,37.00
2018-09-29T16:07:41.341Z,37.50
2018-09-29T16:10:14.905Z,37.50
2018-09-29T16:12:48.591Z,37.10
2018-09-29T16:15:22.132Z,37.00
2018-09-29T16:17:55.682Z,37.10
2018-09-29T16:20:35.692Z,37.40
2018-09-29T16:23:09.088Z,38.10
2018-09-29T16:25:42.655Z,38.40
2018-09-29T16:28:16.964Z,39.20
2018-09-29T16:30:56.764Z,39.50
2018-09-29T16:33:30.389Z,40.00
2018-09-29T16:36:10.376Z,40.50
2018-09-29T16:38:43.980Z,41.00
2018-09-29T16:41:24.630Z,41.40
2018-09-29T16:43:58.282Z,42.20
2018-09-29T16:46:38.283Z,42.90
2018-09-29T16:49:12.908Z,43.10
2018-09-29T16:51:46.516Z,44.10
2018-09-29T16:54:20.019Z,43.70
2018-09-29T16:56:59.917Z,43.50
2018-09-29T16:59:33.332Z,43.90
2018-09-29T17:02:13.367Z,44.20
2018-09-29T17:04:48.131Z,44.10
2018-09-29T17:07:27.856Z,44.00
2018-09-29T17:10:02.561Z,44.60
2018-09-29T17:12:36.145Z,44.90
2018-09-29T17:15:16.113Z,44.80
2018-09-29T17:17:49.677Z,45.20
2018-09-29T17:20:30.025Z,45.70
2018-09-29T17:23:04.612Z,45.30
2018-09-29T17:25:38.369Z,45.60
2018-09-29T17:28:11.813Z,45.60
2018-09-29T17:30:51.711Z,45.70
2018-09-29T17:33:25.284Z,45.70
2018-09-29T17:36:05.251Z,45.80
2018-09-29T17:38:39.752Z,45.80
2018-09-29T17:41:13.719Z,46.00
2018-09-29T17:43:48.220Z,46.10
2018-09-29T17:46:21.860Z,46.50
2018-09-29T17:48:55.376Z,46.80
2018-09-29T17:51:29.047Z,47.00
2018-09-29T17:54:02.528Z,47.10
2018-09-29T17:56:37.274Z,47.70
2018-09-29T17:59:10.770Z,46.60
2018-09-29T18:01:44.478Z,46.70
2018-09-29T18:04:18.978Z,46.80
2018-09-29T18:06:59.041Z,47.00
2018-09-29T18:09:38.927Z,47.20
2018-09-29T18:12:12.480Z,48.10
2018-09-29T18:14:52.488Z,47.30
2018-09-29T18:17:26.666Z,47.40
2018-09-29T18:20:07.111Z,47.60
2018-09-29T18:22:40.597Z,47.80
2018-09-29T18:25:14.187Z,47.90
2018-09-29T18:27:47.735Z,48.00
2018-09-29T18:30:27.922Z,48.00
2018-09-29T18:33:01.566Z,48.00
2018-09-29T18:35:42.121Z,48.10
2018-09-29T18:38:15.587Z,48.10
2018-09-29T18:40:49.255Z,48.10
2018-09-29T18:43:23.875Z,48.80
2018-09-29T18:46:03.896Z,48.30
2018-09-29T18:48:43.972Z,48.40
2018-09-29T18:51:17.632Z,48.90
2018-09-29T18:53:57.682Z,48.70
2018-09-29T18:56:31.309Z,48.70
2018-09-29T18:59:05.017Z,48.80
2018-09-29T19:01:45.116Z,48.30
2018-09-29T19:04:18.466Z,48.70
2018-09-29T19:06:54.102Z,49.00
2018-09-29T19:09:27.867Z,48.60
2018-09-29T19:12:01.491Z,48.70
2018-09-29T19:14:41.424Z,49.00
2018-09-29T19:17:14.889Z,49.50
2018-09-29T19:19:48.632Z,49.80
2018-09-29T19:22:28.755Z,49.80
2018-09-29T19:25:04.269Z,50.10
2018-09-29T19:27:44.187Z,49.80
2018-09-29T19:30:17.692Z,49.70
2018-09-29T19:32:57.428Z,49.80
2018-09-29T19:35:32.253Z,50.30
2018-09-29T19:38:07.150Z,50.40
2018-09-29T19:40:40.759Z,50.30
2018-09-29T19:43:14.384Z,50.30
2018-09-29T19:45:47.931Z,50.60
2018-09-29T19:48:27.949Z,50.20
2018-09-29T19:51:08.112Z,50.40
2018-09-29T19:53:41.580Z,50.60
2018-09-29T19:56:21.700Z,50.50
2018-09-29T19:58:55.561Z,50.80
2018-09-29T20:01:29.218Z,50.90
2018-09-29T20:04:03.202Z,50.50
2018-09-29T20:06:36.796Z,50.60
2018-09-29T20:09:10.544Z,51.10
2018-09-29T20:11:45.092Z,51.10
2018-09-29T20:14:18.641Z,50.90
2018-09-29T20:16:52.148Z,51.40
2018-09-29T20:19:25.684Z,51.60
2018-09-29T20:21:59.453Z,51.70
2018-09-29T20:24:32.859Z,52.00
2018-09-29T20:27:12.799Z,51.20
2018-09-29T20:29:46.347Z,51.40
2018-09-29T20:32:19.803Z,52.00
2018-09-29T20:34:54.347Z,51.90
2018-09-29T20:37:34.468Z,52.00
2018-09-29T20:40:07.988Z,51.70
2018-09-29T20:42:48.012Z,52.50
2018-09-29T20:45:21.599Z,52.20
2018-09-29T20:47:55.072Z,52.50
2018-09-29T20:50:34.912Z,52.80
2018-09-29T20:53:08.314Z,52.80
2018-09-29T20:55:41.897Z,52.90
2018-09-29T20:58:15.592Z,52.80
2018-09-29T21:00:55.518Z,52.60
2018-09-29T21:03:29.071Z,52.60
2018-09-29T21:06:02.712Z,52.80
2018-09-29T21:08:36.416Z,53.10
2018-09-29T21:11:10.843Z,53.40
2018-09-29T21:13:44.488Z,53.30
2018-09-29T21:16:17.985Z,53.20
2018-09-29T21:18:57.899Z,53.50
2018-09-29T21:21:31.765Z,53.60
2018-09-29T21:24:05.434Z,53.30
2018-09-29T21:26:38.950Z,53.40
2018-09-29T21:29:12.589Z,53.40
2018-09-29T21:31:46.389Z,54.50
2018-09-29T21:34:26.308Z,54.70
2018-09-29T21:36:59.857Z,55.00
2018-09-29T21:39:33.539Z,55.20
2018-09-29T21:42:06.987Z,55.20
2018-09-29T21:44:40.562Z,55.00
2018-09-29T21:47:20.817Z,54.90
2018-09-29T21:50:00.902Z,54.90
2018-09-29T21:52:34.448Z,55.20
2018-09-29T21:55:14.361Z,55.40
2018-09-29T21:57:48.858Z,55.30
2018-09-29T22:00:34.320Z,55.80
2018-09-29T22:03:07.937Z,55.10
2018-09-29T22:05:41.727Z,55.80
2018-09-29T22:08:15.385Z,55.70
2018-09-29T22:10:48.969Z,56.20
2018-09-29T22:13:28.839Z,56.00
2018-09-29T22:16:02.408Z,56.50
2018-09-29T22:18:35.964Z,56.30
2018-09-29T22:21:10.600Z,56.10
2018-09-29T22:23:44.073Z,56.10
2018-09-29T22:26:24.112Z,55.90
2018-09-29T22:28:57.691Z,56.10
2018-09-29T22:31:31.506Z,56.00
2018-09-29T22:34:04.928Z,56.40
2018-09-29T22:36:38.623Z,56.60
2018-09-29T22:39:12.967Z,56.70
2018-09-29T22:41:52.944Z,56.80
2018-09-29T22:44:26.611Z,56.80
2018-09-29T22:47:00.228Z,56.80
2018-09-29T22:49:33.629Z,56.80
2018-09-29T22:52:13.663Z,56.50
2018-09-29T22:54:47.408Z,56.30
2018-09-29T22:57:28.128Z,56.60
2018-09-29T23:00:01.773Z,57.00
2018-09-29T23:02:35.271Z,57.10
2018-09-29T23:05:08.900Z,57.40
2018-09-29T23:07:42.373Z,58.20
2018-09-29T23:10:16.031Z,57.40
2018-09-29T23:12:56.042Z,57.30
2018-09-29T23:15:30.729Z,57.50
2018-09-29T23:18:10.822Z,57.40
2018-09-29T23:20:44.343Z,57.50
2018-09-29T23:23:17.907Z,57.70
2018-09-29T23:25:51.521Z,57.90
2018-09-29T23:28:31.627Z,58.00
2018-09-29T23:31:05.232Z,58.00
2018-09-29T23:33:38.801Z,58.00
2018-09-29T23:36:18.671Z,58.10
2018-09-29T23:38:53.144Z,58.10
2018-09-29T23:41:33.311Z,58.30
2018-09-29T23:44:10.547Z,58.50
2018-09-29T23:46:44.239Z,59.00
2018-09-29T23:49:24.161Z,59.20
2018-09-29T23:52:04.131Z,59.10
2018-09-29T23:54:37.657Z,58.80
2018-09-29T23:57:11.267Z,59.20
2018-09-29T23:59:45.752Z,59.30
